Time;durP1;ratioP1;P1;durP2;ratioP2;P2;SDS_P1;SDS_P2;PMS_P1;PMS_P2;Temp;Humidity;BMP_temperature;BMP_pressure;BME280_temperature;BME280_humidity;BME280_pressure;Samples;Min_cycle;Max_cycle;Signal;HPM_P1;HPM_P2
2022/11/20 00:01:06;;;;;;;30.65;9.35;;;4.10;99.90;;;;;;5048827;28;20045;-65
2022/11/20 00:03:32;;;;;;;17.58;8.98;;;4.20;99.90;;;;;;5058995;28;20455;-64
2022/11/20 00:06:02;;;;;;;18.83;10.02;;;4.20;99.90;;;;;;5057499;28;20120;-64
2022/11/20 00:08:28;;;;;;;20.33;8.75;;;4.20;99.90;;;;;;5039655;28;20025;-63
2022/11/20 00:10:54;;;;;;;16.02;8.32;;;4.20;99.90;;;;;;5061588;28;20395;-64
2022/11/20 00:13:20;;;;;;;16.02;6.55;;;4.20;99.90;;;;;;5046232;28;20582;-64
2022/11/20 00:15:45;;;;;;;13.07;6.78;;;4.20;99.90;;;;;;5053146;28;20061;-64
2022/11/20 00:18:11;;;;;;;14.50;7.15;;;4.30;99.90;;;;;;5062443;28;20020;-66
2022/11/20 00:20:37;;;;;;;13.75;7.15;;;4.30;99.90;;;;;;5054336;28;20483;-65
2022/11/20 00:23:03;;;;;;;19.73;8.32;;;4.30;99.90;;;;;;5052251;28;20167;-65
2022/11/20 00:25:29;;;;;;;15.50;8.02;;;4.30;99.90;;;;;;5055332;28;20044;-65
2022/11/20 00:27:55;;;;;;;15.40;8.40;;;4.30;99.90;;;;;;5052322;28;20100;-65
2022/11/20 00:30:20;;;;;;;15.98;8.23;;;4.30;99.90;;;;;;5052089;28;20455;-65
2022/11/20 00:32:47;;;;;;;13.52;8.25;;;4.30;99.90;;;;;;5052401;28;20016;-66
2022/11/20 00:35:16;;;;;;;18.08;9.32;;;4.40;99.90;;;;;;5060067;28;20028;-64
2022/11/20 00:37:42;;;;;;;17.92;8.38;;;4.40;99.90;;;;;;5056169;28;20087;-64
2022/11/20 00:40:08;;;;;;;16.02;8.65;;;4.40;99.90;;;;;;5057781;28;20149;-64
2022/11/20 00:42:34;;;;;;;17.20;8.98;;;4.40;99.90;;;;;;5049339;28;20024;-65
2022/11/20 00:45:00;;;;;;;15.95;8.30;;;4.30;99.90;;;;;;5049844;28;20021;-65
2022/11/20 00:47:26;;;;;;;15.23;7.60;;;4.30;99.90;;;;;;5053717;28;20077;-65
2022/11/20 00:49:52;;;;;;;14.45;8.45;;;4.30;99.90;;;;;;5054614;28;20025;-64
2022/11/20 00:52:18;;;;;;;15.35;8.10;;;4.40;99.90;;;;;;5042585;28;20078;-64
2022/11/20 00:54:43;;;;;;;16.23;8.32;;;4.40;99.90;;;;;;5055010;28;20043;-64
2022/11/20 00:57:09;;;;;;;18.10;9.80;;;4.40;99.90;;;;;;5052398;28;20029;-64
2022/11/20 00:59:35;;;;;;;17.13;9.55;;;4.40;99.90;;;;;;5055927;28;20032;-64
2022/11/20 01:02:01;;;;;;;20.33;10.93;;;4.40;99.90;;;;;;5053530;28;20075;-65
2022/11/20 01:04:30;;;;;;;16.23;10.77;;;4.40;99.90;;;;;;5056692;28;20040;-64
2022/11/20 01:06:56;;;;;;;19.00;11.07;;;4.40;99.90;;;;;;5057968;28;20392;-66
2022/11/20 01:09:21;;;;;;;19.05;10.15;;;4.40;99.90;;;;;;5050108;28;20040;-66
2022/11/20 01:11:47;;;;;;;16.08;9.30;;;4.40;99.90;;;;;;5052323;28;20884;-66
2022/11/20 01:14:18;;;;;;;11.93;7.50;;;4.40;99.90;;;;;;5057689;28;20494;-66
2022/11/20 01:16:49;;;;;;;11.85;7.70;;;4.30;99.90;;;;;;5051811;28;20049;-66
2022/11/20 01:19:17;;;;;;;15.85;7.28;;;4.30;99.90;;;;;;5054449;28;20496;-66
2022/11/20 01:21:45;;;;;;;10.70;7.13;;;4.30;99.90;;;;;;5061997;28;20120;-65
2022/11/20 01:24:14;;;;;;;14.07;7.88;;;4.30;99.90;;;;;;5056228;28;20465;-66
2022/11/20 01:26:41;;;;;;;15.45;7.53;;;4.30;99.90;;;;;;5064265;28;20491;-67
2022/11/20 01:29:10;;;;;;;15.07;8.43;;;4.30;99.90;;;;;;5061825;28;20045;-66
2022/11/20 01:31:37;;;;;;;17.77;9.77;;;4.30;99.90;;;;;;5059370;28;20082;-66
2022/11/20 01:34:05;;;;;;;19.05;10.05;;;4.30;99.90;;;;;;5055980;28;20036;-66
2022/11/20 01:36:32;;;;;;;18.92;10.52;;;4.30;99.90;;;;;;5062684;28;20053;-66
2022/11/20 01:39:04;;;;;;;17.02;9.88;;;4.30;99.90;;;;;;5062115;28;20516;-67
2022/11/20 01:44:20;;;;;;;16.45;9.13;;;4.30;99.90;;;;;;5060877;28;20129;-66
2022/11/20 01:47:00;;;;;;;16.08;8.20;;;4.40;99.90;;;;;;5064766;28;20066;-66
2022/11/20 01:49:40;;;;;;;15.98;7.78;;;4.40;99.90;;;;;;5064547;28;20047;-66
2022/11/20 01:52:15;;;;;;;13.55;7.28;;;4.40;99.90;;;;;;5050176;28;20218;-67
2022/11/20 01:55:08;;;;;;;17.00;8.75;;;4.50;99.90;;;;;;5041145;28;20411;-67
2022/11/20 01:57:35;;;;;;;13.45;7.85;;;4.50;99.90;;;;;;5055623;28;20090;-67
2022/11/20 02:00:11;;;;;;;16.85;8.82;;;4.60;99.90;;;;;;5054686;28;20043;-67
2022/11/20 02:02:40;;;;;;;12.18;7.57;;;4.60;99.90;;;;;;5056940;28;20013;-66
2022/11/20 02:05:33;;;;;;;12.95;8.00;;;4.70;99.90;;;;;;5040228;28;20033;-66
2022/11/20 02:08:00;;;;;;;16.55;8.23;;;4.70;99.90;;;;;;5049591;28;20484;-66
2022/11/20 02:10:28;;;;;;;15.38;8.07;;;4.80;99.90;;;;;;5065652;28;20044;-66
2022/11/20 02:15:39;;;;;;;10.35;5.13;;;5.00;99.90;;;;;;5051081;28;20500;-67
2022/11/20 02:18:06;;;;;;;10.23;5.10;;;5.10;99.90;;;;;;5056895;28;20034;-66
2022/11/20 02:20:32;;;;;;;12.98;6.63;;;5.30;99.90;;;;;;5044006;28;20036;-66
2022/11/20 02:23:08;;;;;;;11.98;7.43;;;5.40;99.90;;;;;;5057697;28;20024;-66
2022/11/20 02:25:36;;;;;;;15.65;7.93;;;5.40;99.90;;;;;;5049572;28;20033;-68
2022/11/20 02:28:02;;;;;;;17.15;7.88;;;5.40;99.90;;;;;;5053874;28;20057;-67
2022/11/20 02:30:28;;;;;;;14.15;7.95;;;5.40;99.90;;;;;;5059200;28;20064;-67
2022/11/20 02:32:54;;;;;;;15.32;8.18;;;5.30;99.90;;;;;;5056528;28;20107;-67
2022/11/20 02:35:19;;;;;;;14.93;8.15;;;5.30;99.90;;;;;;5047534;28;20354;-66
2022/11/20 02:37:52;;;;;;;14.07;8.05;;;5.30;99.90;;;;;;5044672;28;20070;-66
2022/11/20 02:40:17;;;;;;;15.27;7.38;;;5.20;99.90;;;;;;5064619;28;20040;-66
2022/11/20 02:42:43;;;;;;;13.40;8.73;;;5.20;99.90;;;;;;5058116;28;20052;-65
2022/11/20 02:45:09;;;;;;;13.57;8.05;;;5.30;99.90;;;;;;5060730;28;20028;-65
2022/11/20 02:47:35;;;;;;;14.60;8.95;;;5.30;99.90;;;;;;5050037;28;20025;-65
2022/11/20 02:50:02;;;;;;;14.13;8.40;;;5.40;99.90;;;;;;5052879;28;20140;-73
2022/11/20 02:52:28;;;;;;;16.33;8.38;;;5.30;99.90;;;;;;5054396;28;20500;-65
2022/11/20 02:54:54;;;;;;;14.18;8.45;;;5.30;99.90;;;;;;5047119;28;20021;-66
2022/11/20 02:57:19;;;;;;;11.93;7.55;;;5.30;99.90;;;;;;5051414;28;20047;-66
2022/11/20 02:59:45;;;;;;;13.75;8.05;;;5.30;99.90;;;;;;5051457;28;20040;-67
2022/11/20 03:02:11;;;;;;;12.00;7.57;;;5.40;99.90;;;;;;5044324;28;20051;-67
2022/11/20 03:04:36;;;;;;;18.65;8.38;;;5.50;99.90;;;;;;5061811;28;20024;-67
2022/11/20 03:07:03;;;;;;;14.07;7.88;;;5.50;99.90;;;;;;5054811;28;20044;-67
2022/11/20 03:09:28;;;;;;;16.08;8.13;;;5.50;99.90;;;;;;5055172;28;20021;-67
2022/11/20 03:11:54;;;;;;;13.63;8.77;;;5.50;99.90;;;;;;5058624;28;20030;-67
2022/11/20 03:14:20;;;;;;;15.57;8.00;;;5.50;99.90;;;;;;5055447;28;20060;-67
2022/11/20 03:16:45;;;;;;;12.57;6.95;;;5.50;99.90;;;;;;5049715;28;20096;-67
2022/11/20 03:19:12;;;;;;;15.98;8.70;;;5.50;99.90;;;;;;5058357;28;20071;-67
2022/11/20 03:21:37;;;;;;;12.93;8.00;;;5.50;99.90;;;;;;5053772;28;20365;-67
2022/11/20 03:24:04;;;;;;;15.20;8.38;;;5.50;99.90;;;;;;5057735;28;20048;-67
2022/11/20 03:26:30;;;;;;;14.43;8.25;;;5.50;99.90;;;;;;5051052;28;20040;-67
2022/11/20 03:29:01;;;;;;;17.70;8.18;;;5.50;99.90;;;;;;5042353;28;20025;-67
2022/11/20 03:31:40;;;;;;;13.60;8.35;;;5.50;99.90;;;;;;5052339;28;20109;-67
2022/11/20 03:34:06;;;;;;;16.85;8.60;;;5.60;99.90;;;;;;5083465;28;20016;-67
2022/11/20 03:36:33;;;;;;;15.10;8.65;;;5.60;99.90;;;;;;5059936;28;20032;-68
2022/11/20 03:38:59;;;;;;;12.98;7.75;;;5.60;99.90;;;;;;5059713;28;20095;-68
2022/11/20 03:41:30;;;;;;;13.68;8.30;;;5.60;99.90;;;;;;5056599;28;20476;-68
2022/11/20 03:43:59;;;;;;;12.13;7.15;;;5.60;99.90;;;;;;5059641;28;20071;-67
2022/11/20 03:46:25;;;;;;;13.30;6.80;;;5.60;99.90;;;;;;5063252;28;20028;-67
2022/11/20 03:48:52;;;;;;;15.00;7.30;;;5.60;99.90;;;;;;5059768;28;20029;-69
2022/11/20 03:51:22;;;;;;;12.85;7.40;;;5.80;99.90;;;;;;5060183;28;20021;-68
2022/11/20 03:53:49;;;;;;;12.48;6.82;;;5.90;99.90;;;;;;5060237;28;20583;-68
2022/11/20 03:56:18;;;;;;;11.57;7.40;;;6.00;99.90;;;;;;5056387;28;20037;-69
2022/11/20 03:58:44;;;;;;;15.32;6.60;;;6.00;99.90;;;;;;5058933;28;20103;-69
2022/11/20 04:01:21;;;;;;;14.57;9.00;;;6.10;99.90;;;;;;5056015;28;20037;-69
2022/11/20 04:03:47;;;;;;;14.82;9.05;;;6.10;99.90;;;;;;5056721;28;20108;-69
2022/11/20 04:06:17;;;;;;;17.60;8.98;;;6.10;99.90;;;;;;5062525;28;20040;-69
2022/11/20 04:08:43;;;;;;;17.85;8.27;;;6.00;99.90;;;;;;5064019;28;20021;-68
2022/11/20 04:11:20;;;;;;;15.13;9.27;;;6.00;99.90;;;;;;5064553;28;20035;-69
2022/11/20 04:13:48;;;;;;;13.95;8.27;;;6.10;99.90;;;;;;5056662;28;20043;-69
2022/11/20 04:16:15;;;;;;;13.23;7.63;;;6.10;99.90;;;;;;5063730;28;20053;-68
2022/11/20 04:18:40;;;;;;;15.38;7.72;;;6.20;99.90;;;;;;5058735;28;20028;-69
2022/11/20 04:21:06;;;;;;;12.68;6.43;;;6.30;99.90;;;;;;5062679;28;20542;-69
2022/11/20 04:23:33;;;;;;;5.68;1.20;;;6.60;99.90;;;;;;5062552;28;20110;-69
2022/11/20 04:26:09;;;;;;;5.63;0.70;;;7.10;99.90;;;;;;5057115;28;20036;-70
2022/11/20 04:28:35;;;;;;;4.13;0.85;;;7.60;99.90;;;;;;5053129;28;20025;-69
2022/11/20 04:31:06;;;;;;;5.85;1.20;;;7.80;99.90;;;;;;5051805;28;20112;-69
2022/11/20 04:33:32;;;;;;;2.80;1.70;;;8.00;99.90;;;;;;5055571;28;20032;-69
2022/11/20 04:36:24;;;;;;;2.20;0.82;;;8.00;99.90;;;;;;5049931;28;20037;-69
2022/11/20 04:38:55;;;;;;;4.45;0.52;;;8.00;99.90;;;;;;5044923;28;20393;-69
2022/11/20 04:41:23;;;;;;;8.75;0.98;;;8.10;99.90;;;;;;5053308;28;20032;-68
2022/11/20 04:43:52;;;;;;;4.13;1.20;;;8.10;99.90;;;;;;5055010;28;20033;-68
2022/11/20 04:46:19;;;;;;;1.75;1.30;;;8.20;99.90;;;;;;5053991;28;20142;-68
2022/11/20 04:48:46;;;;;;;1.63;0.40;;;8.20;99.90;;;;;;5054846;28;20029;-68
2022/11/20 04:51:13;;;;;;;11.75;1.00;;;8.20;99.90;;;;;;5055316;28;20028;-68
2022/11/20 04:53:39;;;;;;;6.25;2.05;;;8.30;99.90;;;;;;5059494;28;21863;-69
2022/11/20 04:56:07;;;;;;;5.07;0.82;;;8.40;99.90;;;;;;5056660;28;20025;-68
2022/11/20 04:58:34;;;;;;;4.40;0.80;;;8.50;99.90;;;;;;5059078;28;20025;-69
2022/11/20 05:01:04;;;;;;;5.20;0.50;;;8.60;99.90;;;;;;5052800;28;20036;-69
2022/11/20 05:03:30;;;;;;;3.20;0.30;;;8.70;99.90;;;;;;5054230;28;20104;-67
2022/11/20 05:05:59;;;;;;;5.47;0.73;;;8.70;99.90;;;;;;5055045;28;20129;-68
2022/11/20 05:08:25;;;;;;;2.80;0.45;;;8.80;99.90;;;;;;5063746;28;20090;-67
2022/11/20 05:10:50;;;;;;;3.95;0.60;;;8.90;99.90;;;;;;5049154;28;20021;-68
2022/11/20 05:13:16;;;;;;;8.52;1.33;;;8.90;99.90;;;;;;5066401;28;20028;-69
2022/11/20 05:15:42;;;;;;;2.97;0.40;;;9.00;99.90;;;;;;5051376;28;20048;-69
2022/11/20 05:18:08;;;;;;;1.88;0.40;;;9.00;99.90;;;;;;5050267;28;20530;-69
2022/11/20 05:20:35;;;;;;;1.73;0.30;;;9.00;99.90;;;;;;5062221;28;20037;-69
2022/11/20 05:23:02;;;;;;;3.17;0.75;;;9.00;99.90;;;;;;5058214;28;20021;-69
2022/11/20 05:25:28;;;;;;;4.03;0.50;;;9.00;99.90;;;;;;5055973;28;20496;-69
2022/11/20 05:27:54;;;;;;;5.80;0.68;;;9.00;99.90;;;;;;5064510;28;20090;-68
2022/11/20 05:30:19;;;;;;;4.28;0.77;;;9.00;99.90;;;;;;5040983;28;20468;-68
2022/11/20 05:32:45;;;;;;;5.57;0.50;;;9.10;99.90;;;;;;5055251;28;20472;-70
2022/11/20 05:35:11;;;;;;;4.00;0.50;;;9.10;99.90;;;;;;5053436;28;20047;-70
2022/11/20 05:37:36;;;;;;;1.85;0.30;;;9.20;99.90;;;;;;5063654;28;20415;-69
2022/11/20 05:40:02;;;;;;;1.88;0.50;;;9.20;99.90;;;;;;5060573;28;20026;-68
2022/11/20 05:42:31;;;;;;;6.00;0.65;;;9.20;99.90;;;;;;5050053;28;20056;-68
2022/11/20 05:45:03;;;;;;;2.53;0.38;;;9.30;99.90;;;;;;5060090;28;20029;-69
2022/11/20 05:47:32;;;;;;;3.28;0.50;;;9.30;99.90;;;;;;5037760;28;20123;-69
2022/11/20 05:49:58;;;;;;;5.93;0.52;;;9.30;99.90;;;;;;5066779;28;20085;-69
2022/11/20 05:52:27;;;;;;;2.92;0.55;;;9.40;99.90;;;;;;5062222;28;20119;-70
2022/11/20 05:54:53;;;;;;;4.82;0.52;;;9.40;99.90;;;;;;5061665;28;20085;-69
2022/11/20 05:57:19;;;;;;;8.63;0.55;;;9.40;99.90;;;;;;5060768;28;20100;-69
2022/11/20 05:59:44;;;;;;;4.53;0.77;;;9.40;99.90;;;;;;5065221;28;20530;-69
2022/11/20 06:02:10;;;;;;;5.43;0.50;;;9.40;99.90;;;;;;5053349;28;20021;-70
2022/11/20 06:04:36;;;;;;;2.33;0.60;;;9.40;99.90;;;;;;5056086;28;20032;-70
2022/11/20 06:07:02;;;;;;;3.35;0.25;;;9.40;99.90;;;;;;5057807;28;20069;-70
2022/11/20 06:09:27;;;;;;;1.58;0.50;;;9.50;99.90;;;;;;5054710;28;20090;-69
2022/11/20 06:11:53;;;;;;;3.45;1.20;;;9.50;99.90;;;;;;5065937;28;20035;-69
2022/11/20 06:14:20;;;;;;;4.28;0.60;;;9.50;99.90;;;;;;5049119;28;20017;-69
2022/11/20 06:16:45;;;;;;;4.68;0.50;;;9.60;99.90;;;;;;5052468;28;20448;-69
2022/11/20 06:19:12;;;;;;;2.20;0.30;;;9.60;99.90;;;;;;5061082;28;20112;-69
2022/11/20 06:21:37;;;;;;;2.15;0.40;;;9.60;99.90;;;;;;5059897;28;20058;-70
2022/11/20 06:24:03;;;;;;;3.15;0.50;;;9.60;99.90;;;;;;5053518;28;20033;-70
2022/11/20 06:26:30;;;;;;;3.92;0.40;;;9.50;99.90;;;;;;5061064;28;20120;-71
2022/11/20 06:28:56;;;;;;;0.60;0.52;;;9.60;99.90;;;;;;5049721;28;20481;-71
2022/11/20 06:31:24;;;;;;;2.10;0.35;;;9.60;99.90;;;;;;5046116;28;20051;-71
2022/11/20 06:33:51;;;;;;;1.80;0.40;;;9.60;99.90;;;;;;5057340;28;20086;-71
2022/11/20 06:36:22;;;;;;;3.28;0.40;;;9.60;99.90;;;;;;5061679;28;20480;-70
2022/11/20 06:38:49;;;;;;;4.88;0.77;;;9.60;99.90;;;;;;5047192;28;20467;-71
2022/11/20 06:41:18;;;;;;;1.60;0.30;;;9.60;99.90;;;;;;5063769;28;20526;-71
2022/11/20 06:43:44;;;;;;;2.05;0.38;;;9.60;99.90;;;;;;5049046;28;20025;-71
2022/11/20 06:46:12;;;;;;;2.28;0.20;;;9.70;99.90;;;;;;5052311;28;20056;-68
2022/11/20 06:48:38;;;;;;;3.20;0.20;;;9.60;99.90;;;;;;5055775;28;20025;-68
2022/11/20 06:51:06;;;;;;;2.92;0.40;;;9.70;99.90;;;;;;5054120;28;20052;-69
2022/11/20 06:53:32;;;;;;;1.77;0.77;;;9.70;99.90;;;;;;5047595;28;20025;-70
2022/11/20 06:55:58;;;;;;;2.63;0.25;;;9.70;99.90;;;;;;5055705;28;20091;-72
2022/11/20 06:58:27;;;;;;;1.45;0.20;;;9.70;99.90;;;;;;5061241;28;20048;-72
2022/11/20 07:00:54;;;;;;;2.15;0.30;;;9.70;99.90;;;;;;5045734;28;20047;-76
2022/11/20 07:03:20;;;;;;;2.97;0.38;;;9.70;99.90;;;;;;5063201;28;20020;-72
2022/11/20 07:05:46;;;;;;;2.05;0.73;;;9.80;99.90;;;;;;5052110;28;20086;-73
2022/11/20 07:08:12;;;;;;;1.77;0.52;;;9.80;99.90;;;;;;5051828;28;20041;-76
2022/11/20 07:10:38;;;;;;;1.15;0.20;;;9.80;99.90;;;;;;5054261;28;20033;-72
2022/11/20 07:13:04;;;;;;;3.35;0.45;;;9.90;99.90;;;;;;5066867;28;20033;-72
2022/11/20 07:15:31;;;;;;;1.25;0.50;;;9.90;99.90;;;;;;5063596;28;20044;-72
2022/11/20 07:17:59;;;;;;;2.03;0.40;;;10.00;99.90;;;;;;5067126;28;20023;-72
2022/11/20 07:20:25;;;;;;;4.05;0.93;;;10.00;99.90;;;;;;5056887;28;20087;-74
2022/11/20 07:22:58;;;;;;;4.68;0.60;;;10.10;99.90;;;;;;5052328;28;20021;-75
2022/11/20 07:25:28;;;;;;;3.67;0.70;;;10.10;99.90;;;;;;5064876;28;20028;-78
2022/11/20 07:28:00;;;;;;;3.15;0.60;;;10.20;99.90;;;;;;5063395;28;20518;-78
2022/11/20 07:30:30;;;;;;;2.05;0.35;;;10.20;99.90;;;;;;5042304;28;20369;-79
2022/11/20 07:32:57;;;;;;;2.20;1.15;;;10.30;99.90;;;;;;5041807;28;20128;-78
2022/11/20 07:35:24;;;;;;;3.70;0.47;;;10.30;99.90;;;;;;5064478;28;20040;-75
2022/11/20 07:37:49;;;;;;;1.75;0.32;;;10.30;99.90;;;;;;5069317;28;20032;-77
2022/11/20 07:40:16;;;;;;;4.00;0.40;;;10.40;99.90;;;;;;5059561;28;20048;-74
2022/11/20 07:42:56;;;;;;;4.22;0.82;;;10.40;99.90;;;;;;5054753;28;20396;-74
2022/11/20 07:45:23;;;;;;;3.53;0.40;;;10.50;99.90;;;;;;5061781;28;20480;-77
2022/11/20 07:47:50;;;;;;;3.47;0.50;;;10.50;99.90;;;;;;5059038;28;20025;-74
2022/11/20 07:50:16;;;;;;;1.90;0.35;;;10.50;99.90;;;;;;5054474;28;20129;-74
2022/11/20 07:52:42;;;;;;;5.47;0.60;;;10.50;99.90;;;;;;5053428;28;20026;-73
2022/11/20 07:55:09;;;;;;;4.85;0.88;;;10.60;99.90;;;;;;5052767;28;20384;-73
2022/11/20 07:57:35;;;;;;;3.67;0.35;;;10.60;99.90;;;;;;5055212;28;20025;-74
2022/11/20 08:00:01;;;;;;;3.95;0.45;;;10.70;99.90;;;;;;5053593;28;20036;-73
2022/11/20 08:02:27;;;;;;;4.78;0.40;;;10.60;99.90;;;;;;5050526;28;20550;-73
2022/11/20 08:04:53;;;;;;;3.00;0.40;;;10.60;99.90;;;;;;5050514;28;20104;-73
2022/11/20 08:07:18;;;;;;;5.82;0.50;;;10.70;99.90;;;;;;5053903;28;20108;-73
2022/11/20 08:09:44;;;;;;;3.47;0.68;;;10.80;99.90;;;;;;5053134;28;20028;-73
2022/11/20 08:15:05;;;;;;;4.25;0.52;;;10.80;99.90;;;;;;5044447;28;20047;-73
2022/11/20 08:17:31;;;;;;;3.53;0.40;;;10.90;99.90;;;;;;5056674;28;20036;-73
2022/11/20 08:19:57;;;;;;;4.82;0.50;;;10.90;99.90;;;;;;5055023;28;20037;-73
2022/11/20 08:22:24;;;;;;;6.75;0.77;;;11.00;99.90;;;;;;5056916;28;20353;-74
2022/11/20 08:24:50;;;;;;;5.53;0.85;;;10.90;99.90;;;;;;5054199;28;20074;-73
2022/11/20 08:27:16;;;;;;;2.75;0.40;;;11.00;99.90;;;;;;5058003;28;20021;-72
2022/11/20 08:29:42;;;;;;;1.10;0.22;;;11.00;99.90;;;;;;5053228;28;20112;-72
2022/11/20 08:32:08;;;;;;;0.40;0.17;;;10.80;99.90;;;;;;5050155;28;20195;-72
2022/11/20 08:34:33;;;;;;;1.45;0.10;;;10.50;99.90;;;;;;5051616;28;20055;-73
2022/11/20 08:37:02;;;;;;;0.75;0.00;;;10.30;99.90;;;;;;5058033;28;20403;-72
2022/11/20 08:39:35;;;;;;;0.15;0.10;;;10.10;99.90;;;;;;5053525;28;20029;-72
2022/11/20 08:42:02;;;;;;;1.08;0.50;;;10.00;99.90;;;;;;5057195;28;20039;-71
2022/11/20 08:44:28;;;;;;;0.30;0.10;;;9.80;99.90;;;;;;5055912;28;20107;-71
2022/11/20 08:46:53;;;;;;;0.73;0.05;;;9.70;99.90;;;;;;5053856;28;20025;-73
2022/11/20 08:49:19;;;;;;;1.00;0.20;;;9.70;99.90;;;;;;5059856;28;20074;-71
2022/11/20 08:51:48;;;;;;;1.45;0.00;;;9.60;99.90;;;;;;5050497;28;20485;-71
2022/11/20 08:54:14;;;;;;;0.68;0.10;;;9.60;99.90;;;;;;5058429;28;20097;-73
2022/11/20 08:56:40;;;;;;;0.10;0.10;;;9.50;99.90;;;;;;5052568;28;20083;-72
2022/11/20 08:59:05;;;;;;;0.20;0.20;;;9.40;99.90;;;;;;5051104;28;20033;-72
2022/11/20 09:01:32;;;;;;;1.52;0.17;;;9.40;99.90;;;;;;5048479;28;20717;-72
2022/11/20 09:03:59;;;;;;;2.08;0.20;;;9.40;99.90;;;;;;5047807;28;20036;-71
2022/11/20 09:06:25;;;;;;;1.05;0.32;;;9.30;99.90;;;;;;5050822;28;20115;-71
2022/11/20 09:08:54;;;;;;;1.17;0.38;;;9.40;99.90;;;;;;5054022;28;20573;-70
2022/11/20 09:11:23;;;;;;;0.85;0.40;;;9.30;99.90;;;;;;5058455;28;20051;-71
2022/11/20 09:13:49;;;;;;;0.73;0.40;;;9.30;99.90;;;;;;5057336;28;20028;-70
2022/11/20 09:16:18;;;;;;;1.40;0.50;;;9.30;99.90;;;;;;5057238;28;20052;-70
2022/11/20 09:18:44;;;;;;;0.98;0.30;;;9.40;99.90;;;;;;5051682;28;20393;-70
2022/11/20 09:21:11;;;;;;;1.33;0.30;;;9.40;99.90;;;;;;5055229;28;20056;-70
2022/11/20 09:23:38;;;;;;;2.63;0.95;;;9.50;99.90;;;;;;5054678;28;20047;-70
2022/11/20 09:26:13;;;;;;;3.35;0.73;;;9.50;99.90;;;;;;5053951;28;20036;-70
2022/11/20 09:28:40;;;;;;;5.43;0.93;;;9.50;99.90;;;;;;5038384;28;20037;-70
2022/11/20 09:31:09;;;;;;;0.82;0.45;;;9.50;99.90;;;;;;5045946;28;20032;-72
2022/11/20 09:33:35;;;;;;;5.90;1.13;;;9.50;99.90;;;;;;5049815;28;20542;-71
2022/11/20 09:36:01;;;;;;;5.18;0.80;;;9.40;99.90;;;;;;5050555;28;20056;-71
2022/11/20 09:38:27;;;;;;;6.22;0.70;;;9.30;99.90;;;;;;5051734;28;20079;-70
2022/11/20 09:41:06;;;;;;;5.30;0.90;;;9.30;99.90;;;;;;5064205;28;20387;-70
2022/11/20 09:43:50;;;;;;;3.28;0.85;;;9.20;99.90;;;;;;5048978;28;20024;-70
2022/11/20 09:46:35;;;;;;;6.20;1.65;;;9.10;99.90;;;;;;5055923;28;20114;-71
2022/11/20 09:49:19;;;;;;;5.18;0.75;;;9.20;99.90;;;;;;5041828;28;20127;-69
2022/11/20 09:51:59;;;;;;;2.45;0.73;;;9.10;99.90;;;;;;5046652;28;20041;-70
2022/11/20 09:54:39;;;;;;;9.43;1.95;;;9.20;99.90;;;;;;5042008;28;20036;-70
2022/11/20 09:57:32;;;;;;;5.32;1.02;;;9.30;99.90;;;;;;5050959;28;20027;-70
2022/11/20 10:00:01;;;;;;;5.32;1.02;;;9.40;99.90;;;;;;5041855;28;20056;-71
2022/11/20 10:02:39;;;;;;;5.43;0.80;;;9.50;99.90;;;;;;5054647;28;20453;-71
2022/11/20 10:05:09;;;;;;;2.90;0.88;;;9.60;99.90;;;;;;5048116;28;20036;-71
2022/11/20 10:08:09;;;;;;;3.47;0.43;;;9.70;99.90;;;;;;5049944;28;20602;-70
2022/11/20 10:10:36;;;;;;;5.55;0.60;;;9.80;99.90;;;;;;5047554;28;20029;-72
2022/11/20 10:13:14;;;;;;;3.33;0.65;;;9.90;99.90;;;;;;5049690;28;20035;-70
2022/11/20 10:15:58;;;;;;;4.60;0.98;;;9.80;99.90;;;;;;5047154;28;20049;-70
2022/11/20 10:18:52;;;;;;;2.85;0.60;;;9.70;99.90;;;;;;5054853;28;20048;-69
2022/11/20 10:21:56;;;;;;;6.57;0.90;;;9.60;99.90;;;;;;5051810;28;20057;-69
2022/11/20 10:24:58;;;;;;;5.72;1.63;;;9.40;99.90;;;;;;5045272;28;20114;-70
2022/11/20 10:27:37;;;;;;;8.00;2.03;;;9.30;99.90;;;;;;5049619;28;20056;-69
2022/11/20 10:30:08;;;;;;;4.90;0.85;;;9.30;99.90;;;;;;5036396;28;20025;-70
2022/11/20 10:32:40;;;;;;;5.15;1.10;;;9.40;99.90;;;;;;5055369;28;20480;-70
2022/11/20 10:35:27;;;;;;;1.30;0.50;;;9.40;99.90;;;;;;5053823;28;20082;-70
2022/11/20 10:38:01;;;;;;;9.55;1.55;;;9.50;99.90;;;;;;5052467;28;20050;-71
2022/11/20 10:40:46;;;;;;;9.52;1.20;;;9.60;99.90;;;;;;5045006;28;20037;-70
2022/11/20 10:43:33;;;;;;;7.97;1.35;;;9.70;99.90;;;;;;5054802;28;20025;-69
2022/11/20 10:46:04;;;;;;;10.10;1.25;;;9.80;99.90;;;;;;5084883;28;20171;-70
2022/11/20 10:48:32;;;;;;;7.80;2.05;;;9.90;99.90;;;;;;5051669;28;20102;-70
2022/11/20 10:51:12;;;;;;;11.75;0.90;;;10.10;99.90;;;;;;5051976;28;20037;-69
2022/11/20 10:53:41;;;;;;;11.00;1.60;;;10.30;99.90;;;;;;5049481;28;20084;-69
2022/11/20 10:56:18;;;;;;;11.57;1.55;;;10.60;99.90;;;;;;5048395;28;20035;-69
2022/11/20 10:58:52;;;;;;;6.70;1.20;;;10.90;99.90;;;;;;5050455;28;20027;-70
2022/11/20 11:01:23;;;;;;;6.80;1.30;;;10.90;99.90;;;;;;5049539;28;20040;-71
2022/11/20 11:03:53;;;;;;;6.90;1.48;;;11.00;99.90;;;;;;5046950;28;20133;-70
2022/11/20 11:06:30;;;;;;;10.25;1.20;;;10.90;99.90;;;;;;5044867;28;20044;-70
2022/11/20 11:09:00;;;;;;;4.05;1.23;;;11.00;99.90;;;;;;5041997;28;20028;-69
2022/11/20 11:11:32;;;;;;;7.32;1.33;;;10.90;99.90;;;;;;5051453;28;20075;-71
2022/11/20 11:14:14;;;;;;;6.68;1.27;;;10.90;99.90;;;;;;5057151;28;20108;-69
2022/11/20 11:16:54;;;;;;;4.45;1.02;;;10.90;99.90;;;;;;5045853;28;20081;-69
2022/11/20 11:19:20;;;;;;;11.18;1.27;;;10.70;99.90;;;;;;5052041;28;20101;-70
2022/11/20 11:21:49;;;;;;;8.52;1.27;;;10.60;99.90;;;;;;5056580;28;20052;-69
2022/11/20 11:24:26;;;;;;;11.20;1.80;;;10.60;99.90;;;;;;5055664;28;20097;-69
2022/11/20 11:27:04;;;;;;;9.07;0.95;;;10.50;99.90;;;;;;5045511;28;20037;-69
2022/11/20 11:29:31;;;;;;;6.68;1.10;;;10.50;99.90;;;;;;5046146;28;20373;-69
2022/11/20 11:32:23;;;;;;;9.43;1.38;;;10.40;99.90;;;;;;5042334;28;20532;-69
2022/11/20 11:35:04;;;;;;;8.40;1.67;;;10.40;99.90;;;;;;5043833;28;20497;-69
2022/11/20 11:37:35;;;;;;;9.13;1.20;;;10.40;99.90;;;;;;5054737;28;20025;-67
2022/11/20 11:40:03;;;;;;;7.83;1.77;;;10.50;99.90;;;;;;5048755;28;20183;-68
2022/11/20 11:42:30;;;;;;;10.85;1.40;;;10.50;99.90;;;;;;5060044;28;20258;-68
2022/11/20 11:45:05;;;;;;;11.32;1.50;;;10.50;99.90;;;;;;5051902;28;20028;-69
2022/11/20 11:47:38;;;;;;;10.70;1.95;;;10.80;99.90;;;;;;5055170;28;20025;-67
2022/11/20 11:50:10;;;;;;;3.63;0.88;;;11.80;99.90;;;;;;5050915;28;20024;-67
2022/11/20 11:52:54;;;;;;;7.90;1.67;;;12.40;99.90;;;;;;5048170;28;20013;-68
2022/11/20 11:55:44;;;;;;;6.68;1.10;;;12.70;99.90;;;;;;5052744;28;20025;-68
2022/11/20 11:58:10;;;;;;;7.68;1.73;;;13.00;99.90;;;;;;5056869;28;20024;-68
2022/11/20 12:00:40;;;;;;;8.63;1.50;;;13.40;99.90;;;;;;5057522;28;20033;-68
2022/11/20 12:03:31;;;;;;;8.18;1.63;;;13.20;99.90;;;;;;5055113;28;20082;-68
2022/11/20 12:06:05;;;;;;;9.80;1.58;;;13.50;99.90;;;;;;5050037;28;20029;-68
2022/11/20 12:08:55;;;;;;;7.53;1.45;;;13.70;99.90;;;;;;5052573;28;20086;-67
2022/11/20 12:11:33;;;;;;;8.40;1.67;;;13.90;99.90;;;;;;5059536;28;20028;-67
2022/11/20 12:14:19;;;;;;;5.95;1.75;;;13.80;99.90;;;;;;5063509;28;20029;-67
2022/11/20 12:16:45;;;;;;;9.80;1.55;;;14.00;99.90;;;;;;5068551;28;20120;-67
2022/11/20 12:19:13;;;;;;;4.90;1.38;;;13.70;99.90;;;;;;5063505;28;20056;-67
2022/11/20 12:21:42;;;;;;;9.80;1.52;;;14.10;99.90;;;;;;5060860;28;20504;-68
2022/11/20 12:24:20;;;;;;;10.13;2.20;;;14.20;99.90;;;;;;5052285;28;20056;-68
2022/11/20 12:26:51;;;;;;;8.13;1.67;;;14.30;99.90;;;;;;5040904;28;20036;-68
2022/11/20 12:29:47;;;;;;;7.93;2.15;;;14.20;99.90;;;;;;5042208;28;20026;-68
2022/11/20 12:32:16;;;;;;;6.40;1.55;;;14.20;99.90;;;;;;5051856;28;20128;-68
2022/11/20 12:34:59;;;;;;;8.27;1.98;;;14.40;99.90;;;;;;5063461;28;20143;-68
2022/11/20 12:37:45;;;;;;;6.13;1.50;;;14.70;99.90;;;;;;5058490;28;20047;-68
2022/11/20 12:40:42;;;;;;;3.55;0.95;;;15.10;99.90;;;;;;5051063;28;20059;-68
2022/11/20 12:46:18;;;;;;;8.13;1.75;;;14.60;99.90;;;;;;5051755;28;20039;-68
2022/11/20 12:49:02;;;;;;;10.80;1.20;;;15.30;99.90;;;;;;5057211;28;20402;-68
2022/11/20 12:52:10;;;;;;;8.50;1.25;;;15.40;99.90;;;;;;5054893;28;20089;-68
2022/11/20 12:54:44;;;;;;;10.52;1.63;;;15.10;99.90;;;;;;5050193;28;20033;-69
2022/11/20 12:57:21;;;;;;;9.40;1.73;;;14.80;99.90;;;;;;5054863;28;20040;-68
2022/11/20 13:00:10;;;;;;;7.25;1.42;;;14.90;99.90;;;;;;5051691;28;20035;-68
2022/11/20 13:03:11;;;;;;;7.72;1.90;;;15.10;99.90;;;;;;5050662;28;20159;-68
2022/11/20 13:06:04;;;;;;;8.45;1.50;;;15.20;99.90;;;;;;5050133;28;20077;-67
2022/11/20 13:08:36;;;;;;;7.32;1.42;;;14.90;99.90;;;;;;5063995;28;20024;-68
2022/11/20 13:11:20;;;;;;;8.82;1.80;;;15.00;99.90;;;;;;5060365;28;20033;-68
2022/11/20 13:14:06;;;;;;;5.40;1.45;;;14.80;99.90;;;;;;5064804;28;20032;-68
2022/11/20 13:16:57;;;;;;;8.43;1.45;;;15.20;99.90;;;;;;5058702;28;20044;-68
2022/11/20 13:19:23;;;;;;;10.38;1.48;;;15.60;99.90;;;;;;5053457;28;20113;-68